Time;durP1;ratioP1;P1;durP2;ratioP2;P2;SDS_P1;SDS_P2;PMS_P1;PMS_P2;Temp;Humidity;BMP_temperature;BMP_pressure;BME280_temperature;BME280_humidity;BME280_pressure;Samples;Min_cycle;Max_cycle;Signal;HPM_P1;HPM_P2
2022/01/31 00:01:50;;;;;;;15.83;7.23;;;4.90;99.90;;;;;;2613195;54;20498;-74
2022/01/31 00:04:16;;;;;;;10.70;6.20;;;4.90;99.90;;;;;;2612960;54;20463;-74
2022/01/31 00:06:47;;;;;;;13.37;6.43;;;5.00;99.90;;;;;;2612883;54;20415;-74
2022/01/31 00:09:15;;;;;;;8.87;6.13;;;5.00;99.90;;;;;;2613176;47;20423;-74
2022/01/31 00:11:44;;;;;;;9.17;6.53;;;4.90;99.90;;;;;;2613932;39;20807;-73
2022/01/31 00:14:27;;;;;;;23.57;7.10;;;4.90;99.90;;;;;;2612442;47;20478;-73
2022/01/31 00:16:53;;;;;;;14.10;6.07;;;4.90;99.90;;;;;;2612124;54;20416;-74
2022/01/31 00:19:19;;;;;;;12.53;6.90;;;4.90;99.90;;;;;;2612738;39;20796;-74
2022/01/31 00:21:45;;;;;;;10.37;5.70;;;4.90;99.90;;;;;;2614201;54;20206;-74
2022/01/31 00:24:11;;;;;;;9.23;4.60;;;5.00;99.90;;;;;;2612714;47;20909;-74
2022/01/31 00:26:36;;;;;;;7.73;5.30;;;5.00;99.90;;;;;;2612457;54;20239;-74
2022/01/31 00:29:02;;;;;;;6.67;4.80;;;4.90;99.90;;;;;;2613304;54;20580;-74
2022/01/31 00:31:28;;;;;;;7.03;5.80;;;5.00;99.90;;;;;;2614487;54;20162;-74
2022/01/31 00:33:54;;;;;;;8.67;4.30;;;5.00;99.90;;;;;;2612683;47;20159;-74
2022/01/31 00:36:20;;;;;;;11.40;6.40;;;5.00;99.90;;;;;;2613421;47;20622;-74
2022/01/31 00:38:45;;;;;;;5.33;4.83;;;5.10;99.90;;;;;;2613428;54;20142;-75
2022/01/31 00:41:11;;;;;;;13.17;5.13;;;5.10;99.90;;;;;;2613084;47;20170;-73
2022/01/31 00:43:38;;;;;;;10.13;4.77;;;5.10;99.90;;;;;;2612361;54;20269;-73
2022/01/31 00:46:11;;;;;;;9.33;4.50;;;5.10;99.90;;;;;;2612708;54;20526;-73
2022/01/31 00:48:43;;;;;;;7.73;4.73;;;5.20;99.90;;;;;;2613834;39;21918;-73
2022/01/31 00:51:10;;;;;;;12.00;5.10;;;5.10;99.90;;;;;;2615570;31;20894;-73
2022/01/31 00:53:36;;;;;;;13.43;5.57;;;5.10;99.90;;;;;;2613656;39;20845;-73
2022/01/31 00:56:02;;;;;;;7.60;4.53;;;5.10;99.90;;;;;;2614387;54;20400;-74
2022/01/31 00:58:28;;;;;;;14.73;5.10;;;5.10;99.90;;;;;;2612204;54;20393;-74
2022/01/31 01:00:54;;;;;;;12.07;5.40;;;5.10;99.90;;;;;;2613803;54;20450;-74
2022/01/31 01:03:19;;;;;;;9.20;5.23;;;5.10;99.90;;;;;;2613599;54;20419;-75
2022/01/31 01:05:45;;;;;;;8.20;4.57;;;5.00;99.90;;;;;;2612577;47;20431;-74
2022/01/31 01:08:11;;;;;;;4.10;3.70;;;5.10;99.90;;;;;;2614788;31;20625;-74
2022/01/31 01:10:38;;;;;;;7.37;4.70;;;5.10;99.90;;;;;;2613571;47;20696;-74
2022/01/31 01:13:04;;;;;;;16.63;7.23;;;5.10;99.90;;;;;;2612221;54;20426;-73
2022/01/31 01:15:30;;;;;;;9.30;6.10;;;5.10;99.90;;;;;;2612877;54;20411;-74
2022/01/31 01:17:56;;;;;;;10.17;5.80;;;5.10;99.90;;;;;;2613752;39;20506;-74
2022/01/31 01:20:24;;;;;;;4.90;3.30;;;5.10;99.90;;;;;;2613303;54;20379;-74
2022/01/31 01:22:50;;;;;;;7.73;3.90;;;5.10;99.90;;;;;;2613950;54;20427;-74
2022/01/31 01:25:16;;;;;;;7.93;5.37;;;5.00;99.90;;;;;;2612148;39;20820;-74
2022/01/31 01:27:46;;;;;;;12.57;3.93;;;5.00;99.90;;;;;;2612244;54;20495;-74
2022/01/31 01:30:14;;;;;;;13.20;6.60;;;5.00;99.90;;;;;;2613772;47;20426;-74
2022/01/31 01:33:07;;;;;;;21.13;6.03;;;5.00;99.90;;;;;;2613497;47;20471;-74
2022/01/31 01:35:32;;;;;;;11.67;6.13;;;5.00;99.90;;;;;;2614006;54;20467;-74
2022/01/31 01:38:04;;;;;;;6.93;5.63;;;5.00;99.90;;;;;;2613231;54;20455;-74
2022/01/31 01:40:30;;;;;;;10.00;4.97;;;5.00;99.90;;;;;;2613501;47;20963;-74
2022/01/31 01:42:56;;;;;;;7.63;5.60;;;5.00;99.90;;;;;;2613266;51;20416;-73
2022/01/31 01:45:23;;;;;;;12.00;6.27;;;5.00;99.90;;;;;;2613225;54;20430;-73
2022/01/31 01:47:49;;;;;;;14.67;4.87;;;5.10;99.90;;;;;;2613062;54;20866;-74
2022/01/31 01:50:15;;;;;;;7.90;4.87;;;5.10;99.90;;;;;;2612894;47;20463;-74
2022/01/31 01:52:41;;;;;;;10.70;4.87;;;5.10;99.90;;;;;;2613214;47;20197;-74
2022/01/31 01:55:07;;;;;;;10.10;5.00;;;5.10;99.90;;;;;;2613026;54;20238;-74
2022/01/31 01:57:33;;;;;;;6.87;5.37;;;5.10;99.90;;;;;;2613392;54;20425;-75
2022/01/31 01:59:59;;;;;;;9.73;5.03;;;5.00;99.90;;;;;;2613774;54;20414;-74
2022/01/31 02:02:37;;;;;;;10.37;4.90;;;5.20;99.90;;;;;;2612222;54;20291;-74
2022/01/31 02:05:05;;;;;;;7.37;4.30;;;5.10;99.90;;;;;;2613130;47;20439;-74
2022/01/31 02:07:38;;;;;;;13.00;4.43;;;5.00;99.90;;;;;;2612799;47;20446;-74
2022/01/31 02:10:06;;;;;;;14.07;4.60;;;5.10;99.90;;;;;;2614512;39;20831;-73
2022/01/31 02:12:44;;;;;;;12.07;5.60;;;5.00;99.90;;;;;;2612914;51;20459;-73
2022/01/31 02:15:17;;;;;;;3.33;3.07;;;5.00;99.90;;;;;;2612683;46;20433;-75
2022/01/31 02:18:03;;;;;;;6.93;4.77;;;4.90;99.90;;;;;;2613459;54;20391;-75
2022/01/31 02:20:29;;;;;;;9.60;6.30;;;4.70;99.90;;;;;;2612533;46;20434;-76
2022/01/31 02:22:56;;;;;;;11.13;6.10;;;4.60;99.90;;;;;;2613993;54;21027;-76
2022/01/31 02:25:31;;;;;;;10.17;7.20;;;4.40;99.90;;;;;;2612802;47;20431;-75
2022/01/31 02:28:29;;;;;;;9.43;6.70;;;4.40;99.90;;;;;;2614175;47;20423;-74
2022/01/31 02:30:56;;;;;;;13.37;7.50;;;4.30;99.90;;;;;;2612228;54;20567;-74
2022/01/31 02:33:23;;;;;;;20.37;9.30;;;4.30;99.90;;;;;;2614509;47;20429;-75
2022/01/31 02:35:53;;;;;;;13.50;7.33;;;4.20;99.90;;;;;;2613390;47;20460;-75
2022/01/31 02:38:19;;;;;;;12.67;5.47;;;4.20;99.90;;;;;;2613739;47;20407;-75
2022/01/31 02:40:50;;;;;;;14.07;5.67;;;4.10;99.90;;;;;;2613238;47;20467;-75
2022/01/31 02:43:28;;;;;;;16.83;5.17;;;4.10;99.90;;;;;;2613074;54;20398;-75
2022/01/31 02:45:53;;;;;;;5.60;2.90;;;4.00;99.90;;;;;;2613207;47;20415;-74
2022/01/31 02:48:23;;;;;;;10.20;5.10;;;4.00;99.90;;;;;;2612719;54;20415;-75
2022/01/31 02:50:50;;;;;;;12.90;4.10;;;4.00;99.90;;;;;;2613963;54;20247;-74
2022/01/31 02:53:31;;;;;;;11.43;5.60;;;4.00;99.90;;;;;;2612408;47;20405;-74
2022/01/31 02:55:59;;;;;;;9.63;5.27;;;4.00;99.90;;;;;;2613495;47;20450;-75
2022/01/31 02:58:27;;;;;;;9.13;5.60;;;3.90;99.90;;;;;;2612006;54;20438;-74
2022/01/31 03:00:54;;;;;;;8.97;4.50;;;3.80;99.90;;;;;;2613790;54;20496;-74
2022/01/31 03:03:36;;;;;;;7.87;2.83;;;3.80;99.90;;;;;;2613713;54;20447;-74
2022/01/31 03:06:03;;;;;;;9.60;4.97;;;3.70;99.90;;;;;;2613972;47;20428;-74
2022/01/31 03:08:30;;;;;;;9.30;4.60;;;3.70;99.90;;;;;;2613919;46;20986;-75
2022/01/31 03:11:00;;;;;;;10.00;5.33;;;3.70;99.90;;;;;;2613622;47;20515;-74
2022/01/31 03:13:42;;;;;;;4.10;3.70;;;3.70;99.90;;;;;;2613191;39;20804;-73
2022/01/31 03:16:08;;;;;;;8.23;4.47;;;3.70;99.90;;;;;;2612733;49;20410;-75
2022/01/31 03:18:52;;;;;;;12.27;4.20;;;3.70;99.90;;;;;;2614622;54;20418;-74
2022/01/31 03:21:18;;;;;;;7.63;4.73;;;3.60;99.90;;;;;;2612901;54;20904;-75
2022/01/31 03:23:46;;;;;;;12.00;5.60;;;3.70;99.90;;;;;;2613680;39;20609;-75
2022/01/31 03:26:12;;;;;;;8.33;4.63;;;3.70;99.90;;;;;;2613263;51;20972;-75
2022/01/31 03:28:38;;;;;;;8.40;4.03;;;3.70;99.90;;;;;;2613425;54;20366;-75
2022/01/31 03:31:04;;;;;;;9.97;4.30;;;3.70;99.90;;;;;;2612850;47;20191;-74
2022/01/31 03:33:31;;;;;;;12.93;5.33;;;3.70;99.90;;;;;;2614162;54;20162;-75
2022/01/31 03:35:57;;;;;;;4.43;4.00;;;3.70;99.90;;;;;;2613337;54;20639;-75
2022/01/31 03:38:23;;;;;;;7.80;2.93;;;3.70;99.90;;;;;;2613686;47;20423;-74
2022/01/31 03:40:49;;;;;;;4.57;3.70;;;3.80;99.90;;;;;;2613938;47;20963;-75
2022/01/31 03:43:14;;;;;;;9.93;4.87;;;3.80;99.90;;;;;;2612003;54;20155;-75
2022/01/31 03:45:40;;;;;;;4.40;3.70;;;3.80;99.90;;;;;;2613939;39;20584;-75
2022/01/31 03:48:15;;;;;;;9.50;4.00;;;3.90;99.90;;;;;;2613700;39;20920;-74
2022/01/31 03:50:43;;;;;;;6.57;4.00;;;3.90;99.90;;;;;;2613351;47;20483;-74
2022/01/31 03:53:09;;;;;;;3.40;3.10;;;3.90;99.90;;;;;;2613202;47;20415;-75
2022/01/31 03:55:36;;;;;;;4.00;3.70;;;4.00;99.90;;;;;;2613025;54;20534;-75
2022/01/31 03:58:01;;;;;;;10.40;3.90;;;4.00;99.90;;;;;;2611434;54;20488;-74
2022/01/31 04:00:48;;;;;;;9.50;4.07;;;4.10;99.90;;;;;;2613502;31;20881;-75
2022/01/31 04:03:13;;;;;;;7.60;4.50;;;4.10;99.90;;;;;;2614005;46;20432;-75
2022/01/31 04:05:39;;;;;;;8.63;5.63;;;4.20;99.90;;;;;;2614395;54;20427;-74
2022/01/31 04:08:08;;;;;;;12.73;6.10;;;4.30;99.90;;;;;;2614577;54;20165;-74
2022/01/31 04:10:35;;;;;;;5.20;4.03;;;4.30;99.90;;;;;;2614642;54;20246;-75
2022/01/31 04:13:02;;;;;;;10.40;5.73;;;4.40;99.90;;;;;;2612709;54;22125;-75
2022/01/31 04:15:28;;;;;;;5.80;3.67;;;4.40;99.90;;;;;;2614300;39;20807;-74
2022/01/31 04:17:54;;;;;;;7.10;5.83;;;4.50;99.90;;;;;;2614605;54;20418;-74
2022/01/31 04:20:20;;;;;;;8.00;7.00;;;4.60;99.90;;;;;;2613247;54;20282;-75
2022/01/31 04:22:59;;;;;;;9.13;6.57;;;4.60;99.90;;;;;;2613314;54;20407;-74
2022/01/31 04:25:30;;;;;;;12.57;6.90;;;4.60;99.90;;;;;;2614583;54;20408;-74
2022/01/31 04:28:03;;;;;;;17.07;10.10;;;4.60;99.90;;;;;;2613739;54;20399;-75
2022/01/31 04:30:31;;;;;;;8.23;5.87;;;4.70;99.90;;;;;;2614232;54;20478;-76
2022/01/31 04:32:57;;;;;;;15.33;7.10;;;4.70;99.90;;;;;;2615334;54;20435;-74
2022/01/31 04:35:22;;;;;;;6.10;5.13;;;4.70;99.90;;;;;;2614711;54;20543;-75
2022/01/31 04:37:48;;;;;;;9.80;6.63;;;4.90;99.90;;;;;;2614571;54;20147;-75
2022/01/31 04:40:14;;;;;;;8.50;5.33;;;5.00;99.90;;;;;;2614695;54;20407;-75
2022/01/31 04:42:43;;;;;;;9.07;5.33;;;5.00;99.90;;;;;;2614493;54;20295;-75
2022/01/31 04:45:10;;;;;;;7.67;5.60;;;5.10;99.90;;;;;;2614008;54;20420;-75
2022/01/31 04:47:36;;;;;;;10.10;7.87;;;5.10;99.90;;;;;;2614681;54;20415;-75
2022/01/31 04:50:04;;;;;;;12.77;7.90;;;5.20;99.90;;;;;;2614555;54;20422;-75
2022/01/31 04:52:30;;;;;;;11.50;7.40;;;5.20;99.90;;;;;;2612574;54;20404;-76
2022/01/31 04:54:55;;;;;;;9.63;4.60;;;5.20;99.90;;;;;;2614601;46;20454;-75
2022/01/31 04:57:21;;;;;;;6.50;5.13;;;5.30;99.90;;;;;;2614052;46;20177;-75
2022/01/31 04:59:48;;;;;;;10.43;6.20;;;5.30;99.90;;;;;;2613415;54;20410;-75
2022/01/31 05:02:14;;;;;;;16.67;7.70;;;5.30;99.90;;;;;;2615092;54;20383;-76
2022/01/31 05:04:40;;;;;;;9.07;6.00;;;5.40;99.90;;;;;;2613854;54;20447;-76
2022/01/31 05:07:06;;;;;;;10.30;7.83;;;5.40;99.90;;;;;;2614440;39;20634;-75
2022/01/31 05:09:32;;;;;;;9.00;5.53;;;5.40;99.90;;;;;;2614365;54;20163;-74
2022/01/31 05:11:57;;;;;;;11.13;7.13;;;5.40;99.90;;;;;;2614297;39;20563;-75
2022/01/31 05:14:23;;;;;;;12.20;6.10;;;5.40;99.90;;;;;;2613509;54;20396;-75
2022/01/31 05:16:49;;;;;;;10.70;7.73;;;5.50;99.90;;;;;;2615001;54;20158;-75
2022/01/31 05:19:15;;;;;;;12.00;7.87;;;5.50;99.90;;;;;;2614365;54;20177;-75
2022/01/31 05:21:40;;;;;;;5.40;4.63;;;5.60;99.90;;;;;;2613753;54;20703;-75
2022/01/31 05:24:07;;;;;;;9.67;6.57;;;5.70;99.90;;;;;;2614934;54;20159;-75
2022/01/31 05:26:33;;;;;;;11.00;7.50;;;5.70;99.90;;;;;;2614226;54;20155;-76
2022/01/31 05:28:59;;;;;;;10.73;7.13;;;5.70;99.90;;;;;;2613561;46;20403;-75
2022/01/31 05:31:25;;;;;;;9.60;5.23;;;5.80;99.90;;;;;;2614173;54;20940;-75
2022/01/31 05:33:51;;;;;;;6.80;4.10;;;5.80;99.90;;;;;;2613665;39;20953;-75
2022/01/31 05:36:17;;;;;;;8.80;5.93;;;5.80;99.90;;;;;;2614680;54;20445;-76
2022/01/31 05:38:44;;;;;;;7.50;5.80;;;5.80;99.90;;;;;;2614696;54;20395;-76
2022/01/31 05:41:17;;;;;;;6.03;5.10;;;5.80;99.90;;;;;;2612930;54;20157;-75
2022/01/31 05:43:43;;;;;;;9.90;4.47;;;5.80;99.90;;;;;;2612620;46;20426;-75
2022/01/31 05:46:09;;;;;;;7.20;6.10;;;5.80;99.90;;;;;;2614422;54;20412;-75
2022/01/31 05:48:35;;;;;;;6.30;4.30;;;5.80;99.90;;;;;;2613591;54;20404;-75
2022/01/31 05:51:06;;;;;;;14.80;6.57;;;5.90;99.90;;;;;;2612081;54;20151;-76
2022/01/31 05:53:32;;;;;;;5.50;4.40;;;5.90;99.90;;;;;;2614480;54;20150;-75
2022/01/31 05:55:58;;;;;;;14.23;5.60;;;5.90;99.90;;;;;;2613808;54;20425;-75
2022/01/31 05:58:25;;;;;;;13.40;5.07;;;5.80;99.90;;;;;;2613243;54;20436;-75
2022/01/31 06:00:50;;;;;;;8.27;4.87;;;5.80;99.90;;;;;;2613051;54;20551;-75
2022/01/31 06:03:16;;;;;;;4.73;3.53;;;5.70;99.90;;;;;;2614343;47;20399;-75
2022/01/31 06:05:42;;;;;;;11.43;5.20;;;5.60;99.90;;;;;;2613100;47;20225;-75
2022/01/31 06:08:08;;;;;;;12.53;5.80;;;5.60;99.90;;;;;;2615147;54;20158;-75
2022/01/31 06:10:40;;;;;;;7.50;4.87;;;5.50;99.90;;;;;;2613025;54;20171;-75
2022/01/31 06:13:06;;;;;;;10.00;4.20;;;5.50;99.90;;;;;;2612226;47;20170;-75
2022/01/31 06:15:32;;;;;;;8.23;4.83;;;5.60;99.90;;;;;;2613424;39;20827;-74
2022/01/31 06:17:57;;;;;;;7.40;4.50;;;5.60;99.90;;;;;;2613410;54;20170;-75
2022/01/31 06:20:23;;;;;;;4.30;3.67;;;5.70;99.90;;;;;;2612290;54;20181;-76
2022/01/31 06:22:51;;;;;;;11.00;4.20;;;5.70;99.90;;;;;;2613398;54;20147;-78
2022/01/31 06:25:18;;;;;;;6.47;3.90;;;5.80;99.90;;;;;;2612273;54;20161;-76
2022/01/31 06:27:45;;;;;;;15.90;6.10;;;5.80;99.90;;;;;;2611082;47;20562;-75
2022/01/31 06:30:11;;;;;;;9.87;4.67;;;5.80;99.90;;;;;;2609880;47;20419;-74
2022/01/31 06:32:37;;;;;;;6.53;4.10;;;5.90;99.90;;;;;;2609451;31;20923;-74
2022/01/31 06:35:04;;;;;;;13.03;5.67;;;5.90;99.90;;;;;;2611032;47;20500;-75
2022/01/31 06:37:29;;;;;;;13.23;5.00;;;5.90;99.90;;;;;;2610769;54;20155;-75
2022/01/31 06:39:55;;;;;;;6.67;2.73;;;5.80;99.90;;;;;;2611306;54;20447;-75
2022/01/31 06:42:21;;;;;;;15.23;4.50;;;5.80;99.90;;;;;;2612953;54;20162;-75
2022/01/31 06:44:47;;;;;;;9.53;4.20;;;5.80;99.90;;;;;;2608498;54;20151;-75
2022/01/31 06:47:13;;;;;;;21.13;5.83;;;5.80;99.90;;;;;;2609640;54;20519;-75
2022/01/31 06:49:40;;;;;;;11.63;5.40;;;5.80;99.90;;;;;;2611227;54;20150;-75
2022/01/31 06:52:06;;;;;;;15.13;4.80;;;5.90;99.90;;;;;;2647338;36;20459;-75
2022/01/31 06:54:32;;;;;;;8.87;5.23;;;5.90;99.90;;;;;;2610399;47;20426;-76
2022/01/31 06:56:59;;;;;;;10.80;4.77;;;5.80;99.90;;;;;;2611792;54;20400;-75
2022/01/31 06:59:25;;;;;;;6.80;3.83;;;5.80;99.90;;;;;;2611000;54;20407;-74
2022/01/31 07:01:50;;;;;;;9.50;4.60;;;5.70;99.90;;;;;;2610032;39;20818;-74
2022/01/31 07:04:16;;;;;;;14.83;4.30;;;5.60;99.90;;;;;;2609300;47;20718;-75
2022/01/31 07:06:42;;;;;;;8.90;3.53;;;5.50;99.90;;;;;;2610005;54;20151;-74
2022/01/31 07:09:08;;;;;;;13.63;4.07;;;5.40;99.90;;;;;;2611776;54;20151;-75
2022/01/31 07:11:39;;;;;;;4.87;3.07;;;5.20;99.90;;;;;;2612352;54;20153;-74
2022/01/31 07:14:08;;;;;;;8.57;3.40;;;5.10;99.90;;;;;;2610903;51;20177;-73
2022/01/31 07:16:34;;;;;;;5.27;2.47;;;4.90;99.90;;;;;;2611746;54;20434;-74
2022/01/31 07:19:08;;;;;;;5.27;2.60;;;4.80;99.90;;;;;;2611425;46;20457;-75
2022/01/31 07:21:46;;;;;;;3.70;2.30;;;4.60;99.90;;;;;;2612389;54;20416;-75
2022/01/31 07:26:47;;;;;;;2.10;1.90;;;4.50;99.90;;;;;;2611326;47;20422;-75
2022/01/31 07:29:14;;;;;;;2.43;1.53;;;4.40;99.90;;;;;;2612422;54;20408;-75
2022/01/31 07:31:41;;;;;;;6.43;3.00;;;4.40;99.90;;;;;;2613130;47;20435;-73
2022/01/31 07:34:07;;;;;;;4.67;3.37;;;4.40;99.90;;;;;;2610792;39;20841;-75
2022/01/31 07:36:33;;;;;;;7.40;4.60;;;4.40;99.90;;;;;;2611152;54;20445;-74
2022/01/31 07:38:59;;;;;;;10.83;5.20;;;4.40;99.90;;;;;;2612446;54;20402;-78
2022/01/31 07:41:25;;;;;;;6.30;3.90;;;4.50;99.90;;;;;;2612460;39;20815;-75
2022/01/31 07:43:51;;;;;;;7.33;3.33;;;4.50;99.90;;;;;;2611990;47;20464;-75
2022/01/31 07:46:17;;;;;;;7.80;4.13;;;4.50;99.90;;;;;;2612298;47;20166;-74
2022/01/31 07:48:44;;;;;;;4.30;2.20;;;4.60;99.90;;;;;;2612204;54;20426;-74
2022/01/31 07:51:10;;;;;;;4.20;3.80;;;4.60;99.90;;;;;;2614083;54;20143;-74
2022/01/31 07:53:38;;;;;;;7.57;4.20;;;4.60;99.90;;;;;;2612658;54;20404;-76
2022/01/31 07:56:08;;;;;;;9.13;5.13;;;4.70;99.90;;;;;;2610951;47;20431;-75
2022/01/31 07:58:38;;;;;;;5.80;4.60;;;4.70;99.90;;;;;;2613271;47;20418;-75
2022/01/31 08:01:04;;;;;;;7.93;4.83;;;4.70;99.90;;;;;;2611251;54;20363;-75
2022/01/31 08:03:31;;;;;;;7.40;5.50;;;4.70;99.90;;;;;;2612745;54;20414;-74
2022/01/31 08:05:57;;;;;;;6.80;4.37;;;4.70;99.90;;;;;;2612598;54;20486;-75
2022/01/31 08:08:30;;;;;;;10.30;6.97;;;4.70;99.90;;;;;;2612513;54;20479;-74
2022/01/31 08:10:57;;;;;;;7.47;4.70;;;4.80;99.90;;;;;;2612808;47;21025;-75
2022/01/31 08:13:24;;;;;;;17.03;4.13;;;4.70;99.90;;;;;;2612904;47;20415;-75
2022/01/31 08:18:27;;;;;;;13.07;5.03;;;4.80;99.90;;;;;;2613363;54;20752;-75
2022/01/31 08:20:53;;;;;;;17.63;6.23;;;4.80;99.90;;;;;;2612168;54;20415;-75
2022/01/31 08:23:18;;;;;;;14.33;5.00;;;4.80;99.90;;;;;;2613911;54;21260;-75
2022/01/31 08:25:49;;;;;;;10.23;5.90;;;4.80;99.90;;;;;;2612757;54;20199;-74
2022/01/31 08:28:17;;;;;;;9.73;4.30;;;4.80;99.90;;;;;;2614367;39;20540;-76
2022/01/31 08:30:58;;;;;;;8.53;5.07;;;4.80;99.90;;;;;;2612358;46;20435;-75
2022/01/31 08:36:18;;;;;;;7.30;3.13;;;4.90;99.90;;;;;;2611138;54;20407;-74
2022/01/31 08:38:45;;;;;;;6.00;3.70;;;4.90;99.90;;;;;;2612305;54;20412;-75
2022/01/31 08:41:12;;;;;;;10.63;4.13;;;4.90;99.90;;;;;;2612297;31;20945;-75
2022/01/31 08:43:39;;;;;;;5.13;4.60;;;4.90;99.90;;;;;;2611904;51;20431;-75
2022/01/31 08:46:06;;;;;;;12.90;2.57;;;4.90;99.90;;;;;;2611577;54;20980;-75
2022/01/31 08:48:32;;;;;;;5.97;3.60;;;4.90;99.90;;;;;;2610827;49;20439;-74
2022/01/31 08:50:58;;;;;;;5.20;3.60;;;4.90;99.90;;;;;;2612476;46;20518;-75
2022/01/31 08:53:25;;;;;;;3.97;3.57;;;4.90;99.90;;;;;;2611380;54;20216;-75
2022/01/31 08:56:02;;;;;;;7.93;4.10;;;4.90;99.90;;;;;;2610913;47;20427;-75
2022/01/31 08:58:28;;;;;;;3.83;3.47;;;4.90;99.90;;;;;;2610987;54;20403;-75
2022/01/31 09:01:04;;;;;;;10.60;3.50;;;4.90;99.90;;;;;;2611066;54;20395;-75
2022/01/31 09:04:00;;;;;;;8.20;4.87;;;5.00;99.90;;;;;;2611894;54;20437;-75
2022/01/31 09:06:28;;;;;;;6.73;3.13;;;5.00;99.90;;;;;;2611590;54;20458;-75
2022/01/31 09:08:54;;;;;;;6.53;4.63;;;5.00;99.90;;;;;;2611317;54;20507;-75
2022/01/31 09:11:20;;;;;;;7.40;4.23;;;5.00;99.90;;;;;;2612641;39;20840;-75
2022/01/31 09:13:46;;;;;;;8.03;3.97;;;5.00;99.90;;;;;;2612059;47;20511;-75
2022/01/31 09:16:12;;;;;;;6.40;3.40;;;5.00;99.90;;;;;;2612825;47;20191;-74
2022/01/31 09:18:38;;;;;;;7.07;4.60;;;5.00;99.90;;;;;;2613062;54;20945;-74
2022/01/31 09:21:04;;;;;;;7.13;3.33;;;5.00;99.90;;;;;;2613908;54;20460;-75
2022/01/31 09:23:30;;;;;;;8.20;3.47;;;5.00;99.90;;;;;;2612466;54;20659;-74
2022/01/31 09:25:57;;;;;;;20.87;5.00;;;5.00;99.90;;;;;;2612620;54;20403;-75
2022/01/31 09:28:23;;;;;;;9.87;5.00;;;5.00;99.90;;;;;;2612781;39;20776;-75
2022/01/31 09:30:52;;;;;;;7.30;4.97;;;5.00;99.90;;;;;;2611336;54;20406;-74
2022/01/31 09:33:18;;;;;;;8.60;3.53;;;5.00;99.90;;;;;;2612441;54;20395;-75
2022/01/31 09:35:44;;;;;;;5.23;3.80;;;5.00;99.90;;;;;;2613254;46;20423;-75
2022/01/31 09:38:17;;;;;;;5.17;3.83;;;5.10;99.90;;;;;;2611974;54;20400;-75
2022/01/31 09:40:43;;;;;;;6.10;4.30;;;5.10;99.90;;;;;;2613650;54;20447;-74
2022/01/31 09:43:39;;;;;;;8.23;4.80;;;5.10;99.90;;;;;;2612939;54;20992;-75
2022/01/31 09:46:16;;;;;;;6.73;4.10;;;5.10;99.90;;;;;;2611971;54;20415;-74
2022/01/31 09:48:44;;;;;;;11.80;3.27;;;5.10;99.90;;;;;;2611783;54;20440;-75
2022/01/31 09:51:13;;;;;;;7.70;4.17;;;5.20;99.90;;;;;;2611619;54;20426;-75
2022/01/31 09:53:44;;;;;;;14.50;5.50;;;5.20;99.90;;;;;;2611826;54;21070;-75
2022/01/31 09:56:12;;;;;;;11.87;5.33;;;5.20;99.90;;;;;;2612479;54;20556;-75
2022/01/31 09:58:39;;;;;;;13.20;5.60;;;5.20;99.90;;;;;;2612677;54;20408;-76
2022/01/31 10:01:11;;;;;;;8.70;4.23;;;5.20;99.90;;;;;;2612840;39;20784;-74
2022/01/31 10:03:56;;;;;;;10.60;4.17;;;5.20;99.90;;;;;;2613508;54;20431;-75
2022/01/31 10:06:24;;;;;;;12.27;5.37;;;5.20;99.90;;;;;;2611908;54;20547;-75
2022/01/31 10:09:06;;;;;;;24.83;5.07;;;5.20;99.90;;;;;;2611040;54;20419;-75
2022/01/31 10:11:57;;;;;;;11.67;4.00;;;5.20;99.90;;;;;;2613522;39;20793;-74
2022/01/31 10:17:27;;;;;;;9.37;3.30;;;5.20;99.90;;;;;;2611853;39;20804;-74
2022/01/31 10:19:56;;;;;;;7.40;3.07;;;5.30;99.90;;;;;;2610654;54;20598;-75
2022/01/31 10:22:24;;;;;;;7.20;2.83;;;5.30;99.90;;;;;;2610420;54;20480;-75
2022/01/31 10:24:52;;;;;;;4.70;2.67;;;5.30;99.90;;;;;;2611552;54;20468;-75
2022/01/31 10:27:23;;;;;;;7.93;3.03;;;5.30;99.90;;;;;;2611301;54;21000;-75
2022/01/31 10:29:52;;;;;;;8.20;2.10;;;5.30;99.90;;;;;;2610508;54;21267;-75
2022/01/31 10:32:28;;;;;;;6.40;2.90;;;5.40;99.90;;;;;;2612543;39;20792;-75
2022/01/31 10:34:57;;;;;;;6.07;4.07;;;5.40;99.90;;;;;;2611824;54;20407;-74
2022/01/31 10:37:25;;;;;;;11.03;2.93;;;5.40;99.90;;;;;;2612135;54;20447;-76
2022/01/31 10:45:37;;;;;;;11.77;2.50;;;5.40;99.90;;;;;;2611740;54;21003;-75
2022/01/31 10:53:55;;;;;;;5.10;2.27;;;5.40;99.90;;;;;;2612177;39;20780;-75
2022/01/31 10:56:22;;;;;;;7.60;2.40;;;5.40;99.90;;;;;;2611933;47;20438;-75
2022/01/31 10:58:57;;;;;;;3.13;2.20;;;5.40;99.90;;;;;;2612006;54;20451;-76
2022/01/31 11:01:24;;;;;;;4.97;2.47;;;5.50;99.90;;;;;;2612901;54;21102;-76
2022/01/31 11:03:51;;;;;;;5.30;2.20;;;5.50;99.90;;;;;;2612459;54;20403;-76
2022/01/31 11:06:17;;;;;;;6.80;2.60;;;5.50;99.90;;;;;;2613158;54;20541;-76
2022/01/31 11:08:42;;;;;;;7.53;2.80;;;5.50;99.90;;;;;;2612538;54;20408;-76
2022/01/31 11:11:08;;;;;;;10.00;2.63;;;5.50;99.90;;;;;;2613623;54;21055;-74
2022/01/31 11:13:37;;;;;;;12.20;3.10;;;5.50;99.90;;;;;;2612484;54;20169;-75
2022/01/31 11:16:04;;;;;;;6.73;2.93;;;5.50;99.90;;;;;;2612162;54;20783;-75
2022/01/31 11:18:33;;;;;;;10.27;3.70;;;5.50;99.90;;;;;;2612034;54;20990;-75
2022/01/31 11:21:04;;;;;;;3.60;2.10;;;5.50;99.90;;;;;;2612475;54;20945;-77
2022/01/31 11:23:37;;;;;;;3.70;2.37;;;5.60;99.90;;;;;;2612060;54;21003;-77
2022/01/31 11:26:06;;;;;;;5.47;2.33;;;5.60;99.90;;;;;;2611287;54;20823;-75
2022/01/31 11:28:35;;;;;;;5.97;3.07;;;5.60;99.90;;;;;;2612926;54;20406;-75
2022/01/31 11:31:02;;;;;;;7.53;2.97;;;5.60;99.90;;;;;;2613167;54;20480;-76
2022/01/31 11:33:29;;;;;;;6.73;3.40;;;5.60;99.90;;;;;;2611343;47;20900;-75
2022/01/31 11:35:56;;;;;;;3.77;2.13;;;5.60;99.90;;;;;;2613470;54;20515;-76
2022/01/31 11:38:22;;;;;;;6.43;2.83;;;5.60;99.90;;;;;;2611884;47;21262;-76
2022/01/31 11:40:49;;;;;;;7.43;3.23;;;5.60;99.90;;;;;;2612645;54;21044;-76
2022/01/31 11:43:17;;;;;;;5.93;2.30;;;5.60;99.90;;;;;;2612138;54;20442;-76
2022/01/31 11:45:46;;;;;;;9.63;2.73;;;5.60;99.90;;;;;;2611857;54;20438;-75
2022/01/31 11:48:18;;;;;;;18.73;2.27;;;5.60;99.90;;;;;;2613525;39;20742;-76
2022/01/31 11:50:48;;;;;;;4.80;3.80;;;5.60;99.90;;;;;;2613670;39;20818;-74
2022/01/31 11:53:15;;;;;;;7.23;2.20;;;5.60;99.90;;;;;;2611972;54;20973;-75
2022/01/31 11:55:42;;;;;;;7.10;3.07;;;5.60;99.90;;;;;;2612201;54;20467;-75
2022/01/31 11:58:10;;;;;;;11.57;3.10;;;5.60;99.90;;;;;;2611170;47;21008;-75
2022/01/31 12:00:38;;;;;;;9.73;3.87;;;5.70;99.90;;;;;;2613345;54;20418;-75
2022/01/31 12:03:08;;;;;;;8.53;2.93;;;5.70;99.90;;;;;;2610758;47;20446;-75
2022/01/31 12:05:36;;;;;;;11.60;3.60;;;5.70;99.90;;;;;;2612312;39;20830;-75
2022/01/31 12:08:11;;;;;;;9.07;5.07;;;5.70;99.90;;;;;;2611389;54;20442;-75
2022/01/31 12:10:42;;;;;;;14.73;2.97;;;5.70;99.90;;;;;;2612799;54;20407;-74
2022/01/31 12:13:37;;;;;;;10.53;3.40;;;5.70;99.90;;;;;;2611785;54;20416;-74
2022/01/31 12:16:14;;;;;;;10.90;4.90;;;5.70;99.90;;;;;;2610733;54;20414;-75
2022/01/31 12:22:00;;;;;;;11.67;4.07;;;5.70;99.90;;;;;;2613283;39;20829;-76
2022/01/31 12:24:37;;;;;;;10.70;3.53;;;5.70;99.90;;;;;;2612577;54;20412;-76
2022/01/31 12:27:09;;;;;;;21.60;4.50;;;5.70;99.90;;;;;;2612468;54;20846;-76
2022/01/31 12:30:00;;;;;;;13.40;4.23;;;5.80;99.90;;;;;;2612894;54;21012;-75
2022/01/31 12:32:37;;;;;;;11.17;3.63;;;5.80;99.90;;;;;;2613351;51;20543;-77
2022/01/31 12:35:04;;;;;;;8.70;3.50;;;5.90;99.90;;;;;;2613110;39;20791;-76
2022/01/31 12:37:35;;;;;;;20.60;4.07;;;5.90;99.90;;;;;;2613152;54;20405;-76
2022/01/31 12:40:15;;;;;;;10.50;2.67;;;6.00;99.90;;;;;;2613374;39;20829;-76
2022/01/31 12:45:40;;;;;;;8.23;2.97;;;5.90;99.90;;;;;;2613443;49;20427;-77
2022/01/31 12:48:19;;;;;;;18.13;4.03;;;5.80;99.90;;;;;;2615054;54;20407;-76
2022/01/31 12:50:51;;;;;;;11.10;3.07;;;5.90;99.90;;;;;;2615703;54;20415;-75
2022/01/31 12:53:23;;;;;;;9.93;3.27;;;5.90;99.90;;;;;;2613539;47;20434;-76
2022/01/31 12:56:12;;;;;;;7.13;2.50;;;5.90;99.90;;;;;;2613040;39;20848;-75
2022/01/31 12:58:42;;;;;;;7.50;1.80;;;5.90;99.90;;;;;;2612637;51;20435;-74
2022/01/31 13:01:14;;;;;;;8.80;3.53;;;5.90;99.90;;;;;;2612127;47;21384;-74
2022/01/31 13:03:42;;;;;;;9.70;3.10;;;5.90;99.90;;;;;;2657001;36;20586;-76
2022/01/31 13:06:26;;;;;;;2.80;2.30;;;5.90;99.90;;;;;;2611861;54;20460;-76
2022/01/31 13:08:52;;;;;;;4.93;2.93;;;5.80;99.90;;;;;;2613181;54;20419;-76
2022/01/31 13:11:18;;;;;;;3.23;2.93;;;5.80;99.90;;;;;;2613519;54;20998;-75
2022/01/31 13:13:44;;;;;;;9.80;3.47;;;5.80;99.90;;;;;;2612222;47;20439;-76
2022/01/31 13:16:12;;;;;;;9.20;3.10;;;5.80;99.90;;;;;;2613625;54;20434;-74
2022/01/31 13:18:39;;;;;;;8.87;4.40;;;5.80;99.90;;;;;;2612552;47;20428;-75
2022/01/31 13:21:07;;;;;;;7.83;2.93;;;5.90;99.90;;;;;;2613173;54;20426;-75
2022/01/31 13:23:41;;;;;;;9.87;3.80;;;5.90;99.90;;;;;;2611697;54;20414;-76
2022/01/31 13:26:09;;;;;;;7.83;3.63;;;5.90;99.90;;;;;;2612659;54;20408;-75
2022/01/31 13:28:35;;;;;;;14.53;3.50;;;5.90;99.90;;;;;;2612107;47;20444;-76
2022/01/31 13:31:09;;;;;;;8.87;2.90;;;5.80;99.90;;;;;;2613494;54;20459;-75